Home > Products > Valid Products > TAF

000
FTUS45 KPUB 290520
TAFCOS
TAF
KCOS 290520Z 2906/3006 34008KT P6SM SCT090 SCT200
     FM291400 01012KT P6SM SCT060 BKN140
     FM291800 04012KT P6SM VCTS BKN060CB
      TEMPO 2920/2924 VRB15G25KT -SHRA BKN040
     FM300200 35008KT P6SM SCT050 BKN090=



000
FTUS45 KPUB 290520
TAFPUB
TAF
KPUB 290520Z 2906/3006 33006KT P6SM SCT100 SCT200
     FM291500 01012KT P6SM SCT070 BKN150
     FM291800 08012KT P6SM VCSH BKN070
     FM300200 03008KT P6SM SCT060 BKN100=



000
FTUS45 KPUB 290520
TAFALS
TAF
KALS 290520Z 2906/3006 36012KT P6SM SCT120
     FM291000 VRB06KT P6SM SCT120
     FM292000 16008KT P6SM VCTS SCT090CB BKN140
     FM300200 VRB06KT P6SM SCT120 SCT200=



000
FTUS45 KPUB 290520
TAFALS
TAF
KALS 290520Z 2906/3006 36012KT P6SM SCT120
     FM291000 VRB06KT P6SM SCT120
     FM292000 16008KT P6SM VCTS SCT090CB BKN140
     FM300200 VRB06KT P6SM SCT120 SCT200=



000
FTUS45 KPUB 290520
TAFPUB
TAF
KPUB 290520Z 2906/3006 33006KT P6SM SCT100 SCT200
     FM291500 01012KT P6SM SCT070 BKN150
     FM291800 08012KT P6SM VCSH BKN070
     FM300200 03008KT P6SM SCT060 BKN100=



000
FTUS45 KPUB 290520
TAFPUB
TAF
KPUB 290520Z 2906/3006 33006KT P6SM SCT100 SCT200
     FM291500 01012KT P6SM SCT070 BKN150
     FM291800 08012KT P6SM VCSH BKN070
     FM300200 03008KT P6SM SCT060 BKN100=



000
FTUS45 KPUB 290520
TAFALS
TAF
KALS 290520Z 2906/3006 36012KT P6SM SCT120
     FM291000 VRB06KT P6SM SCT120
     FM292000 16008KT P6SM VCTS SCT090CB BKN140
     FM300200 VRB06KT P6SM SCT120 SCT200=



000
FTUS45 KPUB 290520
TAFALS
TAF
KALS 290520Z 2906/3006 36012KT P6SM SCT120
     FM291000 VRB06KT P6SM SCT120
     FM292000 16008KT P6SM VCTS SCT090CB BKN140
     FM300200 VRB06KT P6SM SCT120 SCT200=



000
FTUS45 KPUB 290520
TAFPUB
TAF
KPUB 290520Z 2906/3006 33006KT P6SM SCT100 SCT200
     FM291500 01012KT P6SM SCT070 BKN150
     FM291800 08012KT P6SM VCSH BKN070
     FM300200 03008KT P6SM SCT060 BKN100=



000
FTUS45 KPUB 290520
TAFCOS
TAF
KCOS 290520Z 2906/3006 34008KT P6SM SCT090 SCT200
     FM291400 01012KT P6SM SCT060 BKN140
     FM291800 04012KT P6SM VCTS BKN060CB
      TEMPO 2920/2924 VRB15G25KT -SHRA BKN040
     FM300200 35008KT P6SM SCT050 BKN090=



000
FTUS45 KPUB 290431 AAA
TAFALS
TAF AMD
KALS 290431Z 2905/2924 36012KT P6SM SCT120
     FM290800 VRB06KT P6SM SCT120
     FM291800 22008KT P6SM SCT100=



000
FTUS45 KPUB 290431 AAA
TAFALS
TAF AMD
KALS 290431Z 2905/2924 36012KT P6SM SCT120
     FM290800 VRB06KT P6SM SCT120
     FM291800 22008KT P6SM SCT100=



000
FTUS45 KPUB 290431 AAA
TAFALS
TAF AMD
KALS 290431Z 2905/2924 36012KT P6SM SCT120
     FM290800 VRB06KT P6SM SCT120
     FM291800 22008KT P6SM SCT100=



000
FTUS45 KPUB 290431 AAA
TAFALS
TAF AMD
KALS 290431Z 2905/2924 36012KT P6SM SCT120
     FM290800 VRB06KT P6SM SCT120
     FM291800 22008KT P6SM SCT100=



000
FTUS45 KPUB 290219 AAC
TAFPUB
TAF AMD
KPUB 290219Z 2902/2924 08012KT P6SM VCTS SCT090CB BKN150
      TEMPO 2902/2904 VRB15G25KT -SHRA BKN090
     FM290400 03008KT P6SM SCT120 SCT200
     FM290600 30006KT P6SM SCT100 SCT200
     FM291300 03012KT P6SM SCT050 BKN100
     FM291800 08012KT P6SM VCSH BKN050=



000
FTUS45 KPUB 290219 AAC
TAFPUB
TAF AMD
KPUB 290219Z 2902/2924 08012KT P6SM VCTS SCT090CB BKN150
      TEMPO 2902/2904 VRB15G25KT -SHRA BKN090
     FM290400 03008KT P6SM SCT120 SCT200
     FM290600 30006KT P6SM SCT100 SCT200
     FM291300 03012KT P6SM SCT050 BKN100
     FM291800 08012KT P6SM VCSH BKN050=



000
FTUS45 KPUB 290152 AAB
TAFCOS
TAF AMD
KCOS 290152Z 2902/2924 06010KT P6SM VCTS SCT080CB BKN140
      TEMPO 2902/2903 VRB15G25KT -SHRA BKN080
     FM290400 34008KT P6SM SCT100 SCT200
     FM291200 03012KT P6SM SCT050 BKN100
     FM291700 14010KT P6SM VCSH BKN050=



000
FTUS45 KPUB 290152 AAB
TAFCOS
TAF AMD
KCOS 290152Z 2902/2924 06010KT P6SM VCTS SCT080CB BKN140
      TEMPO 2902/2903 VRB15G25KT -SHRA BKN080
     FM290400 34008KT P6SM SCT100 SCT200
     FM291200 03012KT P6SM SCT050 BKN100
     FM291700 14010KT P6SM VCSH BKN050=



000
FTUS45 KPUB 290152 AAB
TAFCOS
TAF AMD
KCOS 290152Z 2902/2924 06010KT P6SM VCTS SCT080CB BKN140
      TEMPO 2902/2903 VRB15G25KT -SHRA BKN080
     FM290400 34008KT P6SM SCT100 SCT200
     FM291200 03012KT P6SM SCT050 BKN100
     FM291700 14010KT P6SM VCSH BKN050=



000
FTUS45 KPUB 290105 AAB
TAFPUB
TAF AMD
KPUB 290105Z 2901/2924 08008KT P6SM SCT090 BKN150
     FM290300 03008KT P6SM SCT120 SCT200
     FM290600 30006KT P6SM SCT100 SCT200
     FM291300 03012KT P6SM SCT050 BKN100
     FM291800 08012KT P6SM VCSH BKN050=



000
FTUS45 KPUB 290105 AAB
TAFPUB
TAF AMD
KPUB 290105Z 2901/2924 08008KT P6SM SCT090 BKN150
     FM290300 03008KT P6SM SCT120 SCT200
     FM290600 30006KT P6SM SCT100 SCT200
     FM291300 03012KT P6SM SCT050 BKN100
     FM291800 08012KT P6SM VCSH BKN050=



000
FTUS45 KPUB 290105 AAB
TAFPUB
TAF AMD
KPUB 290105Z 2901/2924 08008KT P6SM SCT090 BKN150
     FM290300 03008KT P6SM SCT120 SCT200
     FM290600 30006KT P6SM SCT100 SCT200
     FM291300 03012KT P6SM SCT050 BKN100
     FM291800 08012KT P6SM VCSH BKN050=



000
FTUS45 KPUB 290105 AAB
TAFPUB
TAF AMD
KPUB 290105Z 2901/2924 08008KT P6SM SCT090 BKN150
     FM290300 03008KT P6SM SCT120 SCT200
     FM290600 30006KT P6SM SCT100 SCT200
     FM291300 03012KT P6SM SCT050 BKN100
     FM291800 08012KT P6SM VCSH BKN050=



000
FTUS45 KPUB 290103 AAA
TAFCOS
TAF AMD
KCOS 290103Z 2901/2924 06010KT P6SM SCT080 BKN140
     FM290300 34008KT P6SM SCT100 SCT200
     FM291200 03012KT P6SM SCT050 BKN100
     FM291700 14010KT P6SM VCSH BKN050=



000
FTUS45 KPUB 290103 AAA
TAFCOS
TAF AMD
KCOS 290103Z 2901/2924 06010KT P6SM SCT080 BKN140
     FM290300 34008KT P6SM SCT100 SCT200
     FM291200 03012KT P6SM SCT050 BKN100
     FM291700 14010KT P6SM VCSH BKN050=



000
FTUS45 KPUB 290103 AAA
TAFCOS
TAF AMD
KCOS 290103Z 2901/2924 06010KT P6SM SCT080 BKN140
     FM290300 34008KT P6SM SCT100 SCT200
     FM291200 03012KT P6SM SCT050 BKN100
     FM291700 14010KT P6SM VCSH BKN050=



000
FTUS45 KPUB 290103 AAA
TAFCOS
TAF AMD
KCOS 290103Z 2901/2924 06010KT P6SM SCT080 BKN140
     FM290300 34008KT P6SM SCT100 SCT200
     FM291200 03012KT P6SM SCT050 BKN100
     FM291700 14010KT P6SM VCSH BKN050=



000
FTUS45 KPUB 282330
TAFALS
TAF
KALS 282330Z 2900/2924 29014G24KT P6SM SCT120 SCT200
     FM290200 34008KT P6SM SCT120
     FM290600 VRB06KT P6SM SCT120
     FM291800 22008KT P6SM SCT100=



000
FTUS45 KPUB 282330
TAFCOS
TAF
KCOS 282330Z 2900/2924 35012KT P6SM VCSH SCT080 BKN140
      TEMPO 2900/2902 36012G22KT
     FM290300 34008KT P6SM SCT100 SCT200
     FM291200 03012KT P6SM SCT050 BKN100
     FM291700 14010KT P6SM VCSH BKN050=



000
FTUS45 KPUB 282330
TAFPUB
TAF
KPUB 282330Z 2900/2924 22012KT P6SM SCT090 BKN150
     FM290200 34010KT P6SM SCT120 SCT200
      TEMPO 2902/2903 36012G22KT
     FM290400 29008KT P6SM SCT100 SCT200
     FM291300 03012KT P6SM SCT050 BKN100
     FM291800 08012KT P6SM VCSH BKN050=



000
FTUS45 KPUB 282330
TAFALS
TAF
KALS 282330Z 2900/2924 29014G24KT P6SM SCT120 SCT200
     FM290200 34008KT P6SM SCT120
     FM290600 VRB06KT P6SM SCT120
     FM291800 22008KT P6SM SCT100=



000
FTUS45 KPUB 282330
TAFCOS
TAF
KCOS 282330Z 2900/2924 35012KT P6SM VCSH SCT080 BKN140
      TEMPO 2900/2902 36012G22KT
     FM290300 34008KT P6SM SCT100 SCT200
     FM291200 03012KT P6SM SCT050 BKN100
     FM291700 14010KT P6SM VCSH BKN050=



000
FTUS45 KPUB 282330
TAFPUB
TAF
KPUB 282330Z 2900/2924 22012KT P6SM SCT090 BKN150
     FM290200 34010KT P6SM SCT120 SCT200
      TEMPO 2902/2903 36012G22KT
     FM290400 29008KT P6SM SCT100 SCT200
     FM291300 03012KT P6SM SCT050 BKN100
     FM291800 08012KT P6SM VCSH BKN050=



000
FTUS45 KPUB 282330
TAFALS
TAF
KALS 282330Z 2900/2924 29014G24KT P6SM SCT120 SCT200
     FM290200 34008KT P6SM SCT120
     FM290600 VRB06KT P6SM SCT120
     FM291800 22008KT P6SM SCT100=



000
FTUS45 KPUB 282236 AAA
TAFALS
TAF AMD
KALS 282236Z 2823/2918 30015KT P6SM VCTS SCT090CB BKN140
     FM290100 34008KT P6SM SCT120 BKN200
     FM290400 VRB06KT P6SM SCT140=



000
FTUS45 KPUB 282236 AAA
TAFALS
TAF AMD
KALS 282236Z 2823/2918 30015KT P6SM VCTS SCT090CB BKN140
     FM290100 34008KT P6SM SCT120 BKN200
     FM290400 VRB06KT P6SM SCT140=



000
FTUS45 KPUB 282217 AAA
TAFCOS
TAF AMD
KCOS 282217Z 2822/2918 16009KT P6SM VCTS SCT080CB BKN140
     FM290000 36012G22KT P6SM VCSH SCT060 BKN120
     FM290300 35010KT P6SM SCT120 SCT200=



000
FTUS45 KPUB 282217 AAA
TAFCOS
TAF AMD
KCOS 282217Z 2822/2918 16009KT P6SM VCTS SCT080CB BKN140
     FM290000 36012G22KT P6SM VCSH SCT060 BKN120
     FM290300 35010KT P6SM SCT120 SCT200=



000
FTUS45 KPUB 282207 AAA
TAFPUB
TAF AMD
KPUB 282207Z 2822/2918 26015KT P6SM VCTS SCT090CB BKN150
      TEMPO 2822/2824 VRB25G35KT -TSRA BKN090CB
     FM290200 34010KT P6SM SCT130 SCT200=



000
FTUS45 KPUB 282207 AAA
TAFPUB
TAF AMD
KPUB 282207Z 2822/2918 26015KT P6SM VCTS SCT090CB BKN150
      TEMPO 2822/2824 VRB25G35KT -TSRA BKN090CB
     FM290200 34010KT P6SM SCT130 SCT200=



000
FTUS45 KPUB 281723
TAFCOS
TAF
KCOS 281723Z 2818/2918 15006KT P6SM FEW060 SCT120 SCT200
     FM281900 19014KT P6SM VCTS SCT080CB BKN120
     FM282200 36010G20KT P6SM VCTS SCT070CB BKN120
     FM290100 35010KT P6SM SCT120 SCT200=



000
FTUS45 KPUB 281723
TAFPUB
TAF
KPUB 281723Z 2818/2918 VRB05KT P6SM SCT120 SCT200
     FM282000 22012KT P6SM VCTS SCT100CB BKN200
     FM282300 26012G22KT P6SM VCTS SCT100CB BKN150
     FM290200 34010KT P6SM SCT130 SCT200=



000
FTUS45 KPUB 281723
TAFALS
TAF
KALS 281723Z 2818/2918 17008KT P6SM FEW100 SCT200
     FM282000 22015G25KT P6SM VCTS SCT090CB BKN140
     FM290100 34008KT P6SM SCT120 BKN200
     FM290400 VRB06KT P6SM SCT140=



000
FTUS45 KPUB 281723
TAFALS
TAF
KALS 281723Z 2818/2918 17008KT P6SM FEW100 SCT200
     FM282000 22015G25KT P6SM VCTS SCT090CB BKN140
     FM290100 34008KT P6SM SCT120 BKN200
     FM290400 VRB06KT P6SM SCT140=



000
FTUS45 KPUB 281723
TAFPUB
TAF
KPUB 281723Z 2818/2918 VRB05KT P6SM SCT120 SCT200
     FM282000 22012KT P6SM VCTS SCT100CB BKN200
     FM282300 26012G22KT P6SM VCTS SCT100CB BKN150
     FM290200 34010KT P6SM SCT130 SCT200=



000
FTUS45 KPUB 281723
TAFCOS
TAF
KCOS 281723Z 2818/2918 15006KT P6SM FEW060 SCT120 SCT200
     FM281900 19014KT P6SM VCTS SCT080CB BKN120
     FM282200 36010G20KT P6SM VCTS SCT070CB BKN120
     FM290100 35010KT P6SM SCT120 SCT200=



000
FTUS45 KPUB 281723
TAFCOS
TAF
KCOS 281723Z 2818/2918 15006KT P6SM FEW060 SCT120 SCT200
     FM281900 19014KT P6SM VCTS SCT080CB BKN120
     FM282200 36010G20KT P6SM VCTS SCT070CB BKN120
     FM290100 35010KT P6SM SCT120 SCT200=



000
FTUS45 KPUB 281723
TAFALS
TAF
KALS 281723Z 2818/2918 17008KT P6SM FEW100 SCT200
     FM282000 22015G25KT P6SM VCTS SCT090CB BKN140
     FM290100 34008KT P6SM SCT120 BKN200
     FM290400 VRB06KT P6SM SCT140=



000
FTUS45 KPUB 281723
TAFPUB
TAF
KPUB 281723Z 2818/2918 VRB05KT P6SM SCT120 SCT200
     FM282000 22012KT P6SM VCTS SCT100CB BKN200
     FM282300 26012G22KT P6SM VCTS SCT100CB BKN150
     FM290200 34010KT P6SM SCT130 SCT200=



000
FTUS45 KPUB 281723
TAFALS
TAF
KALS 281723Z 2818/2918 17008KT P6SM FEW100 SCT200
     FM282000 22015G25KT P6SM VCTS SCT090CB BKN140
     FM290100 34008KT P6SM SCT120 BKN200
     FM290400 VRB06KT P6SM SCT140=



000
FTUS45 KPUB 281723
TAFCOS
TAF
KCOS 281723Z 2818/2918 15006KT P6SM FEW060 SCT120 SCT200
     FM281900 19014KT P6SM VCTS SCT080CB BKN120
     FM282200 36010G20KT P6SM VCTS SCT070CB BKN120
     FM290100 35010KT P6SM SCT120 SCT200=



000
FTUS45 KPUB 281723
TAFPUB
TAF
KPUB 281723Z 2818/2918 VRB05KT P6SM SCT120 SCT200
     FM282000 22012KT P6SM VCTS SCT100CB BKN200
     FM282300 26012G22KT P6SM VCTS SCT100CB BKN150
     FM290200 34010KT P6SM SCT130 SCT200=



000
FTUS45 KPUB 281120
TAFCOS
TAF
KCOS 281120Z 2812/2912 03006KT P6SM SCT140 SCT200
      TEMPO 2812/2813 FEW005
     FM281500 15006KT P6SM SCT140 SCT200
     FM281700 18012KT P6SM FEW100 SCT200
     FM281900 19014KT P6SM VCTS SCT090CB BKN140
     FM282200 36010G20KT P6SM VCTS SCT070CB BKN120
     FM290100 35010KT P6SM SCT120 SCT200=



000
FTUS45 KPUB 281120
TAFALS
TAF
KALS 281120Z 2812/2912 30006KT P6SM SCT200
     FM281600 17008KT P6SM FEW100 SCT200
     FM282000 22015G25KT P6SM VCTS SCT090CB BKN140
     FM290100 34008KT P6SM SCT120 BKN200
     FM290400 VRB06KT P6SM SCT140=



000
FTUS45 KPUB 281120
TAFALS
TAF
KALS 281120Z 2812/2912 30006KT P6SM SCT200
     FM281600 17008KT P6SM FEW100 SCT200
     FM282000 22015G25KT P6SM VCTS SCT090CB BKN140
     FM290100 34008KT P6SM SCT120 BKN200
     FM290400 VRB06KT P6SM SCT140=



000
FTUS45 KPUB 281120
TAFCOS
TAF
KCOS 281120Z 2812/2912 03006KT P6SM SCT140 SCT200
      TEMPO 2812/2813 FEW005
     FM281500 15006KT P6SM SCT140 SCT200
     FM281700 18012KT P6SM FEW100 SCT200
     FM281900 19014KT P6SM VCTS SCT090CB BKN140
     FM282200 36010G20KT P6SM VCTS SCT070CB BKN120
     FM290100 35010KT P6SM SCT120 SCT200=



000
FTUS45 KPUB 281120
TAFCOS
TAF
KCOS 281120Z 2812/2912 03006KT P6SM SCT140 SCT200
      TEMPO 2812/2813 FEW005
     FM281500 15006KT P6SM SCT140 SCT200
     FM281700 18012KT P6SM FEW100 SCT200
     FM281900 19014KT P6SM VCTS SCT090CB BKN140
     FM282200 36010G20KT P6SM VCTS SCT070CB BKN120
     FM290100 35010KT P6SM SCT120 SCT200=



000
FTUS45 KPUB 281120
TAFPUB
TAF
KPUB 281120Z 2812/2912 34007KT P6SM SCT150 SCT200
     FM282000 22012KT P6SM VCTS SCT100CB BKN200
     FM282300 26012G22KT P6SM VCTS SCT100CB BKN150
     FM290200 34010KT P6SM SCT130 SCT200=



000
FTUS45 KPUB 281120
TAFPUB
TAF
KPUB 281120Z 2812/2912 34007KT P6SM SCT150 SCT200
     FM282000 22012KT P6SM VCTS SCT100CB BKN200
     FM282300 26012G22KT P6SM VCTS SCT100CB BKN150
     FM290200 34010KT P6SM SCT130 SCT200=



000
FTUS45 KPUB 281120
TAFALS
TAF
KALS 281120Z 2812/2912 30006KT P6SM SCT200
     FM281600 17008KT P6SM FEW100 SCT200
     FM282000 22015G25KT P6SM VCTS SCT090CB BKN140
     FM290100 34008KT P6SM SCT120 BKN200
     FM290400 VRB06KT P6SM SCT140=



000
FTUS45 KPUB 281120
TAFCOS
TAF
KCOS 281120Z 2812/2912 03006KT P6SM SCT140 SCT200
      TEMPO 2812/2813 FEW005
     FM281500 15006KT P6SM SCT140 SCT200
     FM281700 18012KT P6SM FEW100 SCT200
     FM281900 19014KT P6SM VCTS SCT090CB BKN140
     FM282200 36010G20KT P6SM VCTS SCT070CB BKN120
     FM290100 35010KT P6SM SCT120 SCT200=



000
FTUS45 KPUB 281120
TAFALS
TAF
KALS 281120Z 2812/2912 30006KT P6SM SCT200
     FM281600 17008KT P6SM FEW100 SCT200
     FM282000 22015G25KT P6SM VCTS SCT090CB BKN140
     FM290100 34008KT P6SM SCT120 BKN200
     FM290400 VRB06KT P6SM SCT140=



000
FTUS45 KPUB 281120
TAFPUB
TAF
KPUB 281120Z 2812/2912 34007KT P6SM SCT150 SCT200
     FM282000 22012KT P6SM VCTS SCT100CB BKN200
     FM282300 26012G22KT P6SM VCTS SCT100CB BKN150
     FM290200 34010KT P6SM SCT130 SCT200=



000
FTUS45 KPUB 281120
TAFPUB
TAF
KPUB 281120Z 2812/2912 34007KT P6SM SCT150 SCT200
     FM282000 22012KT P6SM VCTS SCT100CB BKN200
     FM282300 26012G22KT P6SM VCTS SCT100CB BKN150
     FM290200 34010KT P6SM SCT130 SCT200=



000
FTUS45 KPUB 280723 AAA
TAFCOS
TAF AMD
KCOS 280723Z 2807/2906 03007KT P6SM FEW140 SCT200
     FM280830 12010KT P6SM SCT140 SCT200
     FM281100 04006KT P6SM SCT140 SCT200
      TEMPO 2811/2813 SCT005
     FM281400 15006KT P6SM SCT200
     FM281700 17012KT P6SM FEW100 SCT200
     FM282000 19014KT P6SM VCTS SCT090CB BKN140
     FM290100 35010KT P6SM SCT120 SCT200=



000
FTUS45 KPUB 280723 AAA
TAFCOS
TAF AMD
KCOS 280723Z 2807/2906 03007KT P6SM FEW140 SCT200
     FM280830 12010KT P6SM SCT140 SCT200
     FM281100 04006KT P6SM SCT140 SCT200
      TEMPO 2811/2813 SCT005
     FM281400 15006KT P6SM SCT200
     FM281700 17012KT P6SM FEW100 SCT200
     FM282000 19014KT P6SM VCTS SCT090CB BKN140
     FM290100 35010KT P6SM SCT120 SCT200=



000
FTUS45 KPUB 280723 AAA
TAFCOS
TAF AMD
KCOS 280723Z 2807/2906 03007KT P6SM FEW140 SCT200
     FM280830 12010KT P6SM SCT140 SCT200
     FM281100 04006KT P6SM SCT140 SCT200
      TEMPO 2811/2813 SCT005
     FM281400 15006KT P6SM SCT200
     FM281700 17012KT P6SM FEW100 SCT200
     FM282000 19014KT P6SM VCTS SCT090CB BKN140
     FM290100 35010KT P6SM SCT120 SCT200=



000
FTUS45 KPUB 280717 AAA
TAFPUB
TAF AMD
KPUB 280717Z 2807/2906 10009KT P6SM SCT150 SCT200
     FM281000 VRB06KT P6SM SCT150 SCT200
     FM282000 22012KT P6SM VCTS SCT100CB BKN150
     FM290200 34010KT P6SM SCT130 SCT200=



000
FTUS45 KPUB 280717 AAA
TAFPUB
TAF AMD
KPUB 280717Z 2807/2906 10009KT P6SM SCT150 SCT200
     FM281000 VRB06KT P6SM SCT150 SCT200
     FM282000 22012KT P6SM VCTS SCT100CB BKN150
     FM290200 34010KT P6SM SCT130 SCT200=



000
FTUS45 KPUB 280520
TAFALS
TAF
KALS 280520Z 2806/2906 VRB05KT P6SM SCT200
     FM281600 17008KT P6SM FEW100 SCT200
     FM282000 22015G25KT P6SM VCTS SCT090CB BKN140
     FM290200 18008KT P6SM SCT120 BKN200=



000
FTUS45 KPUB 280520
TAFPUB
TAF
KPUB 280520Z 2806/2906 VRB06KT P6SM FEW150 SCT200
      TEMPO 2808/2809 08012KT
     FM281400 VRB06KT P6SM FEW120 SCT200
     FM282000 22012KT P6SM VCTS SCT100CB BKN150
     FM290200 34010KT P6SM SCT130 SCT200=



000
FTUS45 KPUB 280520
TAFPUB
TAF
KPUB 280520Z 2806/2906 VRB06KT P6SM FEW150 SCT200
      TEMPO 2808/2809 08012KT
     FM281400 VRB06KT P6SM FEW120 SCT200
     FM282000 22012KT P6SM VCTS SCT100CB BKN150
     FM290200 34010KT P6SM SCT130 SCT200=



000
FTUS45 KPUB 280520
TAFCOS
TAF
KCOS 280520Z 2806/2906 03007KT P6SM FEW140 SCT200
      TEMPO 2808/2809 07012KT
     FM281400 15006KT P6SM SCT200
     FM281700 17012KT P6SM FEW100 SCT200
     FM282000 19014KT P6SM VCTS SCT090CB BKN140
     FM290100 35010KT P6SM SCT120 SCT200=



000
FTUS45 KPUB 280520
TAFALS
TAF
KALS 280520Z 2806/2906 VRB05KT P6SM SCT200
     FM281600 17008KT P6SM FEW100 SCT200
     FM282000 22015G25KT P6SM VCTS SCT090CB BKN140
     FM290200 18008KT P6SM SCT120 BKN200=



000
FTUS45 KPUB 280520
TAFCOS
TAF
KCOS 280520Z 2806/2906 03007KT P6SM FEW140 SCT200
      TEMPO 2808/2809 07012KT
     FM281400 15006KT P6SM SCT200
     FM281700 17012KT P6SM FEW100 SCT200
     FM282000 19014KT P6SM VCTS SCT090CB BKN140
     FM290100 35010KT P6SM SCT120 SCT200=



000
FTUS45 KPUB 280020 AAA
TAFCOS
TAF AMD
KCOS 280020Z 2800/2824 23006KT P6SM SCT100 BKN150
     FM280200 28009KT P6SM SCT080 BKN120
     FM280600 01007KT P6SM FEW100 BKN140
     FM281200 VRB06KT P6SM FEW100 SCT200
     FM281800 18010KT P6SM SCT100
     FM282100 19012KT P6SM VCTS SCT100CB BKN150=



000
FTUS45 KPUB 280020 AAA
TAFCOS
TAF AMD
KCOS 280020Z 2800/2824 23006KT P6SM SCT100 BKN150
     FM280200 28009KT P6SM SCT080 BKN120
     FM280600 01007KT P6SM FEW100 BKN140
     FM281200 VRB06KT P6SM FEW100 SCT200
     FM281800 18010KT P6SM SCT100
     FM282100 19012KT P6SM VCTS SCT100CB BKN150=



000
FTUS45 KPUB 280019 AAA
TAFALS
TAF AMD
KALS 280019Z 2800/2824 27012KT P6SM VCTS SCT070CB BKN130
     FM280200 22007KT P6SM SCT070 BKN130
     FM280600 VRB05KT P6SM BKN130
     FM282000 22015G25KT P6SM VCTS BKN100CB=



000
FTUS45 KPUB 280019 AAA
TAFALS
TAF AMD
KALS 280019Z 2800/2824 27012KT P6SM VCTS SCT070CB BKN130
     FM280200 22007KT P6SM SCT070 BKN130
     FM280600 VRB05KT P6SM BKN130
     FM282000 22015G25KT P6SM VCTS BKN100CB=



000
FTUS45 KPUB 272324
TAFCOS
TAF
KCOS 272324Z 2800/2824 18012G22KT P6SM VCTS SCT060CB BKN130
      TEMPO 2800/2801 VRB20G30KT -TSRA BKN050CB
     FM280200 28009KT P6SM SCT080 BKN120
     FM280600 01007KT P6SM FEW100 BKN140
     FM281200 VRB06KT P6SM FEW100 SCT200
     FM281800 18010KT P6SM SCT100
     FM282100 19012KT P6SM VCTS SCT100CB BKN150=



000
FTUS45 KPUB 272324
TAFPUB
TAF
KPUB 272324Z 2800/2824 14007KT P6SM SCT080 BKN120
     FM280600 VRB06KT P6SM BKN150
     FM281200 VRB06KT P6SM FEW120 SCT200
     FM282000 21012KT P6SM VCTS SCT120CB BKN150=



000
FTUS45 KPUB 272324
TAFCOS
TAF
KCOS 272324Z 2800/2824 18012G22KT P6SM VCTS SCT060CB BKN130
      TEMPO 2800/2801 VRB20G30KT -TSRA BKN050CB
     FM280200 28009KT P6SM SCT080 BKN120
     FM280600 01007KT P6SM FEW100 BKN140
     FM281200 VRB06KT P6SM FEW100 SCT200
     FM281800 18010KT P6SM SCT100
     FM282100 19012KT P6SM VCTS SCT100CB BKN150=



000
FTUS45 KPUB 272324
TAFPUB
TAF
KPUB 272324Z 2800/2824 14007KT P6SM SCT080 BKN120
     FM280600 VRB06KT P6SM BKN150
     FM281200 VRB06KT P6SM FEW120 SCT200
     FM282000 21012KT P6SM VCTS SCT120CB BKN150=



000
FTUS45 KPUB 272324
TAFALS
TAF
KALS 272324Z 2800/2824 23015G25KT P6SM VCTS SCT070CB BKN130
     FM280200 22007KT P6SM SCT070 BKN130
     FM280600 VRB05KT P6SM BKN130
     FM282000 22015G25KT P6SM VCTS BKN100CB=



000
FTUS45 KPUB 272324
TAFALS
TAF
KALS 272324Z 2800/2824 23015G25KT P6SM VCTS SCT070CB BKN130
     FM280200 22007KT P6SM SCT070 BKN130
     FM280600 VRB05KT P6SM BKN130
     FM282000 22015G25KT P6SM VCTS BKN100CB=



000
FTUS45 KPUB 272226 AAB
TAFPUB
TAF AMD
KPUB 272226Z 2722/2818 18015G25KT P6SM VCTS SCT080 BKN120CB
      TEMPO 2722/2724 VRB20G33KT 3SM -TSRA SCT040 BKN060CB
     FM280000 27012KT P6SM SCT080 BKN120
     FM280600 VRB06KT P6SM BKN150
     FM281200 VRB06KT P6SM FEW120 SCT200=



000
FTUS45 KPUB 272226 AAB
TAFPUB
TAF AMD
KPUB 272226Z 2722/2818 18015G25KT P6SM VCTS SCT080 BKN120CB
      TEMPO 2722/2724 VRB20G33KT 3SM -TSRA SCT040 BKN060CB
     FM280000 27012KT P6SM SCT080 BKN120
     FM280600 VRB06KT P6SM BKN150
     FM281200 VRB06KT P6SM FEW120 SCT200=



000
FTUS45 KPUB 271917 AAA
TAFCOS
TAF AMD
KCOS 271917Z 2719/2818 19015KT P6SM VCTS SCT080CB BKN200
      TEMPO 2719/2722 VRB20G30KT -TSRA BKN050CB
     FM272200 18012G22KT P6SM VCTS SCT060CB BKN130
      TEMPO 2722/2801 VRB20G30KT -TSRA BKN050CB
     FM280200 28009KT P6SM SCT080 BKN120
     FM280600 01007KT P6SM FEW100 BKN140
     FM281200 VRB06KT P6SM FEW100 SCT200=



000
FTUS45 KPUB 271917 AAA
TAFCOS
TAF AMD
KCOS 271917Z 2719/2818 19015KT P6SM VCTS SCT080CB BKN200
      TEMPO 2719/2722 VRB20G30KT -TSRA BKN050CB
     FM272200 18012G22KT P6SM VCTS SCT060CB BKN130
      TEMPO 2722/2801 VRB20G30KT -TSRA BKN050CB
     FM280200 28009KT P6SM SCT080 BKN120
     FM280600 01007KT P6SM FEW100 BKN140
     FM281200 VRB06KT P6SM FEW100 SCT200=



000
FTUS45 KPUB 271736
TAFCOS
TAF
KCOS 271736Z 2718/2818 15012KT P6SM SCT080 SCT200
      TEMPO 2718/2720 15012G22KT
     FM272000 17012G22KT P6SM VCTS SCT060CB BKN130
      TEMPO 2721/2801 VRB20G30KT -TSRA BKN050CB
     FM280200 28009KT P6SM SCT080 BKN120
     FM280600 01007KT P6SM FEW100 BKN140
     FM281200 VRB06KT P6SM FEW100 SCT200=



000
FTUS45 KPUB 271736
TAFPUB
TAF
KPUB 271736Z 2718/2818 VRB06KT P6SM SCT120 SCT200
     FM272200 19009KT P6SM VCTS SCT080CB BKN140
     FM280200 27012KT P6SM SCT080 BKN120
     FM280600 VRB06KT P6SM BKN150
     FM281200 VRB06KT P6SM FEW120 SCT200=



000
FTUS45 KPUB 271736
TAFALS
TAF
KALS 271736Z 2718/2818 19008KT P6SM SCT100 SCT200
     FM272000 22015G25KT P6SM VCTS SCT070CB BKN130
     FM280200 22007KT P6SM SCT070 BKN130
     FM280600 VRB05KT P6SM BKN130=



000
FTUS45 KPUB 271736
TAFALS
TAF
KALS 271736Z 2718/2818 19008KT P6SM SCT100 SCT200
     FM272000 22015G25KT P6SM VCTS SCT070CB BKN130
     FM280200 22007KT P6SM SCT070 BKN130
     FM280600 VRB05KT P6SM BKN130=



000
FTUS45 KPUB 271736
TAFPUB
TAF
KPUB 271736Z 2718/2818 VRB06KT P6SM SCT120 SCT200
     FM272200 19009KT P6SM VCTS SCT080CB BKN140
     FM280200 27012KT P6SM SCT080 BKN120
     FM280600 VRB06KT P6SM BKN150
     FM281200 VRB06KT P6SM FEW120 SCT200=



000
FTUS45 KPUB 271736
TAFCOS
TAF
KCOS 271736Z 2718/2818 15012KT P6SM SCT080 SCT200
      TEMPO 2718/2720 15012G22KT
     FM272000 17012G22KT P6SM VCTS SCT060CB BKN130
      TEMPO 2721/2801 VRB20G30KT -TSRA BKN050CB
     FM280200 28009KT P6SM SCT080 BKN120
     FM280600 01007KT P6SM FEW100 BKN140
     FM281200 VRB06KT P6SM FEW100 SCT200=



000
FTUS45 KPUB 271120
TAFALS
TAF
KALS 271120Z 2712/2812 VRB06KT P6SM SCT100
     FM271600 19006KT P6SM SCT100 BKN200
     FM272000 24012KT P6SM VCTS SCT080CB BKN140
     FM280300 24006KT P6SM SCT100 BKN200
     FM280700 VRB05KT P6SM SCT150=



000
FTUS45 KPUB 271120
TAFPUB
TAF
KPUB 271120Z 2712/2812 VRB05KT P6SM FEW150
     FM271400 20006KT P6SM FEW120 SCT200
     FM272000 14010KT P6SM VCTS SCT090CB BKN150
     FM280300 34009KT P6SM VCTS SCT070CB BKN150
     FM280700 VRB06KT P6SM SCT130 SCT200=



000
FTUS45 KPUB 271120
TAFCOS
TAF
KCOS 271120Z 2712/2812 02006KT P6SM FEW100 SCT200
     FM271400 16007KT P6SM FEW100 SCT200
     FM272000 18012KT P6SM VCTS SCT080CB BKN140
     FM280300 35008KT P6SM VCTS SCT060CB SCT200
     FM280700 01006KT P6SM FEW100 SCT200=



000
FTUS45 KPUB 271120
TAFALS
TAF
KALS 271120Z 2712/2812 VRB06KT P6SM SCT100
     FM271600 19006KT P6SM SCT100 BKN200
     FM272000 24012KT P6SM VCTS SCT080CB BKN140
     FM280300 24006KT P6SM SCT100 BKN200
     FM280700 VRB05KT P6SM SCT150=



000
FTUS45 KPUB 271120
TAFALS
TAF
KALS 271120Z 2712/2812 VRB06KT P6SM SCT100
     FM271600 19006KT P6SM SCT100 BKN200
     FM272000 24012KT P6SM VCTS SCT080CB BKN140
     FM280300 24006KT P6SM SCT100 BKN200
     FM280700 VRB05KT P6SM SCT150=



000
FTUS45 KPUB 271120
TAFCOS
TAF
KCOS 271120Z 2712/2812 02006KT P6SM FEW100 SCT200
     FM271400 16007KT P6SM FEW100 SCT200
     FM272000 18012KT P6SM VCTS SCT080CB BKN140
     FM280300 35008KT P6SM VCTS SCT060CB SCT200
     FM280700 01006KT P6SM FEW100 SCT200=



000
FTUS45 KPUB 271120
TAFPUB
TAF
KPUB 271120Z 2712/2812 VRB05KT P6SM FEW150
     FM271400 20006KT P6SM FEW120 SCT200
     FM272000 14010KT P6SM VCTS SCT090CB BKN150
     FM280300 34009KT P6SM VCTS SCT070CB BKN150
     FM280700 VRB06KT P6SM SCT130 SCT200=



000
FTUS45 KPUB 271120
TAFCOS
TAF
KCOS 271120Z 2712/2812 02006KT P6SM FEW100 SCT200
     FM271400 16007KT P6SM FEW100 SCT200
     FM272000 18012KT P6SM VCTS SCT080CB BKN140
     FM280300 35008KT P6SM VCTS SCT060CB SCT200
     FM280700 01006KT P6SM FEW100 SCT200=



000
FTUS45 KPUB 271120
TAFPUB
TAF
KPUB 271120Z 2712/2812 VRB05KT P6SM FEW150
     FM271400 20006KT P6SM FEW120 SCT200
     FM272000 14010KT P6SM VCTS SCT090CB BKN150
     FM280300 34009KT P6SM VCTS SCT070CB BKN150
     FM280700 VRB06KT P6SM SCT130 SCT200=



000
FTUS45 KPUB 270520
TAFPUB
TAF
KPUB 270520Z 2706/2806 VRB06KT P6SM SCT090 BKN150
     FM271400 13006KT P6SM FEW120 SCT200
     FM272000 14010KT P6SM VCTS SCT090CB BKN150
     FM280300 VRB06KT P6SM SCT130 SCT200=



000
FTUS45 KPUB 270520
TAFCOS
TAF
KCOS 270520Z 2706/2806 VRB06KT P6SM SCT080 BKN140
     FM271400 15008KT P6SM FEW100 SCT200
     FM272000 17012KT P6SM VCTS SCT080CB BKN140
     FM280300 35008KT P6SM SCT120 SCT200=



000
FTUS45 KPUB 270520
TAFALS
TAF
KALS 270520Z 2706/2806 VRB06KT P6SM SCT200
     FM271600 16008KT P6SM SCT120 SCT200
     FM272000 24012KT P6SM VCTS SCT080CB BKN140
     FM280200 18008KT P6SM SCT120 BKN200=



000
FTUS45 KPUB 270423 AAB
TAFPUB
TAF AMD
KPUB 270423Z 2704/2724 06008KT P6SM VCSH SCT050 OVC090
     FM270800 VRB06KT P6SM SCT080 BKN130
     FM271400 12006KT P6SM SCT130 SCT200
     FM272000 14010KT P6SM VCTS SCT080CB BKN130=



000
FTUS45 KPUB 270423 AAB
TAFPUB
TAF AMD
KPUB 270423Z 2704/2724 06008KT P6SM VCSH SCT050 OVC090
     FM270800 VRB06KT P6SM SCT080 BKN130
     FM271400 12006KT P6SM SCT130 SCT200
     FM272000 14010KT P6SM VCTS SCT080CB BKN130=



000
FTUS45 KPUB 270303 AAA
TAFCOS
TAF AMD
KCOS 270303Z 2703/2724 35008KT P6SM VCTS SCT050CB BKN090
      TEMPO 2703/2704 VRB15G25KT 5SM -TSRA BKN040CB
     FM270400 34008KT P6SM VCSH BKN050
     FM270700 34007KT P6SM SCT060 BKN120
     FM271400 15008KT P6SM SCT120 SCT200
     FM272000 17012KT P6SM VCTS SCT070CB BKN120=



000
FTUS45 KPUB 270303 AAA
TAFCOS
TAF AMD
KCOS 270303Z 2703/2724 35008KT P6SM VCTS SCT050CB BKN090
      TEMPO 2703/2704 VRB15G25KT 5SM -TSRA BKN040CB
     FM270400 34008KT P6SM VCSH BKN050
     FM270700 34007KT P6SM SCT060 BKN120
     FM271400 15008KT P6SM SCT120 SCT200
     FM272000 17012KT P6SM VCTS SCT070CB BKN120=



000
FTUS45 KPUB 270301 AAB
TAFPUB
TAF AMD
KPUB 270301Z 2703/2724 08010KT P6SM VCTS SCT060CB BKN100
      TEMPO 2703/2704 VRB15G25KT 5SM -TSRA OVC050CB
     FM270400 28008KT P6SM VCSH SCT050 OVC090
     FM270800 VRB06KT P6SM SCT080 BKN130
     FM271400 12006KT P6SM SCT130 SCT200
     FM272000 14010KT P6SM VCTS SCT080CB BKN130=



000
FTUS45 KPUB 270301 AAB
TAFPUB
TAF AMD
KPUB 270301Z 2703/2724 08010KT P6SM VCTS SCT060CB BKN100
      TEMPO 2703/2704 VRB15G25KT 5SM -TSRA OVC050CB
     FM270400 28008KT P6SM VCSH SCT050 OVC090
     FM270800 VRB06KT P6SM SCT080 BKN130
     FM271400 12006KT P6SM SCT130 SCT200
     FM272000 14010KT P6SM VCTS SCT080CB BKN130=



000
FTUS45 KPUB 270040 AAA
TAFPUB
TAF AMD
KPUB 270040Z 2701/2724 10010KT P6SM VCTS SCT060CB BKN100
      TEMPO 2701/2703 VRB20G30KT -TSRA BKN050CB
     FM270300 26008KT P6SM VCSH SCT050 BKN090
     FM270800 VRB06KT P6SM SCT080 BKN130
     FM271400 12006KT P6SM SCT130 SCT200
     FM272000 14010KT P6SM VCTS SCT080CB BKN130=



000
FTUS45 KPUB 270040 AAA
TAFPUB
TAF AMD
KPUB 270040Z 2701/2724 10010KT P6SM VCTS SCT060CB BKN100
      TEMPO 2701/2703 VRB20G30KT -TSRA BKN050CB
     FM270300 26008KT P6SM VCSH SCT050 BKN090
     FM270800 VRB06KT P6SM SCT080 BKN130
     FM271400 12006KT P6SM SCT130 SCT200
     FM272000 14010KT P6SM VCTS SCT080CB BKN130=



000
FTUS45 KPUB 262320
TAFCOS
TAF
KCOS 262320Z 2700/2724 16008KT P6SM VCTS SCT050CB BKN090
      TEMPO 2701/2703 VRB20G30KT 6SM -TSRA BKN040CB
     FM270300 20008KT P6SM VCSH BKN050
     FM270700 35007KT P6SM SCT060 BKN120
     FM271400 15008KT P6SM SCT120 SCT200
     FM272000 17012KT P6SM VCTS SCT070CB BKN120=



000
FTUS45 KPUB 262320
TAFPUB
TAF
KPUB 262320Z 2700/2724 10010KT P6SM VCTS SCT060CB BKN100
     FM270400 26008KT P6SM VCSH SCT050 BKN090
     FM270800 VRB06KT P6SM SCT080 BKN130
     FM271400 12006KT P6SM SCT130 SCT200
     FM272000 14010KT P6SM VCTS SCT080CB BKN130=



000
FTUS45 KPUB 262320
TAFALS
TAF
KALS 262320Z 2700/2724 25008KT P6SM VCTS SCT060CB BKN120
      TEMPO 2700/2701 VRB20G30KT -TSRA BKN060CB
     FM270300 18006KT P6SM SCT120 BKN200
     FM270600 VRB06KT P6SM SCT200
     FM271600 16008KT P6SM SCT120 SCT200
     FM272100 23012KT P6SM VCTS SCT080CB BKN140=



000
FTUS45 KPUB 262320
TAFALS
TAF
KALS 262320Z 2700/2724 25008KT P6SM VCTS SCT060CB BKN120
      TEMPO 2700/2701 VRB20G30KT -TSRA BKN060CB
     FM270300 18006KT P6SM SCT120 BKN200
     FM270600 VRB06KT P6SM SCT200
     FM271600 16008KT P6SM SCT120 SCT200
     FM272100 23012KT P6SM VCTS SCT080CB BKN140=



000
FTUS45 KPUB 262320
TAFCOS
TAF
KCOS 262320Z 2700/2724 16008KT P6SM VCTS SCT050CB BKN090
      TEMPO 2701/2703 VRB20G30KT 6SM -TSRA BKN040CB
     FM270300 20008KT P6SM VCSH BKN050
     FM270700 35007KT P6SM SCT060 BKN120
     FM271400 15008KT P6SM SCT120 SCT200
     FM272000 17012KT P6SM VCTS SCT070CB BKN120=



000
FTUS45 KPUB 262320
TAFPUB
TAF
KPUB 262320Z 2700/2724 10010KT P6SM VCTS SCT060CB BKN100
     FM270400 26008KT P6SM VCSH SCT050 BKN090
     FM270800 VRB06KT P6SM SCT080 BKN130
     FM271400 12006KT P6SM SCT130 SCT200
     FM272000 14010KT P6SM VCTS SCT080CB BKN130=



000
FTUS45 KPUB 262242 AAA
TAFALS
TAF AMD
KALS 262242Z 2623/2718 24014KT P6SM VCTS SCT060CB BKN120
      TEMPO 2623/2701 VRB20G35KT -TSRA BKN060CB
     FM270200 VRB06KT P6SM SCT100 SCT200=



000
FTUS45 KPUB 262242 AAA
TAFALS
TAF AMD
KALS 262242Z 2623/2718 24014KT P6SM VCTS SCT060CB BKN120
      TEMPO 2623/2701 VRB20G35KT -TSRA BKN060CB
     FM270200 VRB06KT P6SM SCT100 SCT200=



000
FTUS45 KPUB 262234 AAB
TAFCOS
TAF AMD
KCOS 262234Z 2623/2718 17010KT P6SM VCTS SCT050CB BKN100
      TEMPO 2623/2701 VRB15G30KT 5SM -TSRAGS SCT040CB BKN050
     FM270400 09008KT P6SM VCSH BKN050
     FM270700 05007KT P6SM SCT050 BKN120
     FM271400 15008KT P6SM SCT060 SCT120=



000
FTUS45 KPUB 262234 AAB
TAFCOS
TAF AMD
KCOS 262234Z 2623/2718 17010KT P6SM VCTS SCT050CB BKN100
      TEMPO 2623/2701 VRB15G30KT 5SM -TSRAGS SCT040CB BKN050
     FM270400 09008KT P6SM VCSH BKN050
     FM270700 05007KT P6SM SCT050 BKN120
     FM271400 15008KT P6SM SCT060 SCT120=



000
FTUS45 KPUB 262116 AAA
TAFCOS
TAF AMD
KCOS 262116Z 2621/2718 17010KT P6SM VCTS SCT050CB BKN100
      TEMPO 2621/2701 VRB15G30KT 6SM -TSRA SCT040CB BKN050
     FM270400 09008KT P6SM VCSH BKN050
     FM270700 05007KT P6SM SCT050 BKN120
     FM271400 15008KT P6SM SCT060 SCT120=



000
FTUS45 KPUB 262116 AAA
TAFCOS
TAF AMD
KCOS 262116Z 2621/2718 17010KT P6SM VCTS SCT050CB BKN100
      TEMPO 2621/2701 VRB15G30KT 6SM -TSRA SCT040CB BKN050
     FM270400 09008KT P6SM VCSH BKN050
     FM270700 05007KT P6SM SCT050 BKN120
     FM271400 15008KT P6SM SCT060 SCT120=



000
FTUS45 KPUB 261738
TAFCOS
TAF
KCOS 261738Z 2618/2718 15010KT P6SM SCT050 BKN100
     FM262200 17011KT P6SM VCTS SCT040CB BKN060
     FM270400 09008KT P6SM VCSH BKN050
     FM270700 05007KT P6SM SCT050 BKN120
     FM271400 15008KT P6SM SCT060 SCT120=



000
FTUS45 KPUB 261738
TAFCOS
TAF
KCOS 261738Z 2618/2718 15010KT P6SM SCT050 BKN100
     FM262200 17011KT P6SM VCTS SCT040CB BKN060
     FM270400 09008KT P6SM VCSH BKN050
     FM270700 05007KT P6SM SCT050 BKN120
     FM271400 15008KT P6SM SCT060 SCT120=



000
FTUS45 KPUB 261738
TAFALS
TAF
KALS 261738Z 2618/2718 VRB05KT P6SM SCT120
     FM262000 22010KT P6SM SCT070 BKN120
     FM262200 24012G24KT P6SM VCTS SCT070CB BKN120
     FM270200 VRB06KT P6SM SCT100 SCT200=



000
FTUS45 KPUB 261738
TAFPUB
TAF
KPUB 261738Z 2618/2718 12008KT P6SM SCT100 SCT250
     FM262000 12010KT P6SM SCT080 SCT120
     FM262300 13012KT P6SM VCTS SCT070CB BKN100
     FM270300 08007KT P6SM VCSH SCT060 BKN100
     FM270600 VRB06KT P6SM FEW060 SCT120=



000
FTUS45 KPUB 261738
TAFALS
TAF
KALS 261738Z 2618/2718 VRB05KT P6SM SCT120
     FM262000 22010KT P6SM SCT070 BKN120
     FM262200 24012G24KT P6SM VCTS SCT070CB BKN120
     FM270200 VRB06KT P6SM SCT100 SCT200=



000
FTUS45 KPUB 261738
TAFPUB
TAF
KPUB 261738Z 2618/2718 12008KT P6SM SCT100 SCT250
     FM262000 12010KT P6SM SCT080 SCT120
     FM262300 13012KT P6SM VCTS SCT070CB BKN100
     FM270300 08007KT P6SM VCSH SCT060 BKN100
     FM270600 VRB06KT P6SM FEW060 SCT120=



000
FTUS45 KPUB 261120
TAFCOS
TAF
KCOS 261120Z 2612/2712 02005KT P6SM SCT150
     FM261800 15008KT P6SM SCT070 SCT120
     FM262200 17011KT P6SM VCTS BKN050CB BKN100
     FM270200 09008KT P6SM VCTS BKN050CB BKN100
     FM270700 05007KT P6SM SCT050 BKN120=



000
FTUS45 KPUB 261120
TAFCOS
TAF
KCOS 261120Z 2612/2712 02005KT P6SM SCT150
     FM261800 15008KT P6SM SCT070 SCT120
     FM262200 17011KT P6SM VCTS BKN050CB BKN100
     FM270200 09008KT P6SM VCTS BKN050CB BKN100
     FM270700 05007KT P6SM SCT050 BKN120=



000
FTUS45 KPUB 261120
TAFALS
TAF
KALS 261120Z 2612/2712 VRB05KT P6SM FEW150
     FM261800 21008KT P6SM SCT060 BKN120
     FM262100 22011KT P6SM VCTS SCT060CB BKN120
     FM270200 VRB06KT P6SM SCT100 SCT200=



000
FTUS45 KPUB 261120
TAFPUB
TAF
KPUB 261120Z 2612/2712 24006KT P6SM FEW150
     FM261900 12008KT P6SM SCT080 SCT120
     FM262300 12011KT P6SM VCTS SCT060CB BKN100
     FM270300 08006KT P6SM VCTS SCT060CB BKN100
     FM270600 01006KT P6SM SCT060 BKN120=



000
FTUS45 KPUB 261120
TAFPUB
TAF
KPUB 261120Z 2612/2712 24006KT P6SM FEW150
     FM261900 12008KT P6SM SCT080 SCT120
     FM262300 12011KT P6SM VCTS SCT060CB BKN100
     FM270300 08006KT P6SM VCTS SCT060CB BKN100
     FM270600 01006KT P6SM SCT060 BKN120=



000
FTUS45 KPUB 261120
TAFALS
TAF
KALS 261120Z 2612/2712 VRB05KT P6SM FEW150
     FM261800 21008KT P6SM SCT060 BKN120
     FM262100 22011KT P6SM VCTS SCT060CB BKN120
     FM270200 VRB06KT P6SM SCT100 SCT200=



    US Dept of Commerce
    National Oceanic and Atmospheric Administration
    National Weather Service
    1325 East West Highway
    Silver Spring, MD 20910
    Page Author: NWS Internet Services Team
Disclaimer
Information Quality
Credits
Glossary
Privacy Policy
Freedom of Information Act (FOIA)
About Us
Career Opportunities